Time;durP1;ratioP1;P1;durP2;ratioP2;P2;SDS_P1;SDS_P2;PMS_P1;PMS_P2;Temp;Humidity;BMP_temperature;BMP_pressure;BME280_temperature;BME280_humidity;BME280_pressure;Samples;Min_cycle;Max_cycle;Signal;HPM_P1;HPM_P2
2021/06/24 00:02:22;;;;;;;2.70;2.40;;;;;;;16.56;100.00;155616.34;4979485;28;20445;-75
2021/06/24 00:04:57;;;;;;;2.50;2.30;;;;;;;16.51;100.00;155603.28;4980015;28;20460;-76
2021/06/24 00:07:33;;;;;;;3.53;2.80;;;;;;;16.54;100.00;155611.16;4976308;28;20453;-75
2021/06/24 00:10:10;;;;;;;2.90;2.60;;;;;;;16.49;100.00;155596.78;4991041;28;20453;-75
2021/06/24 00:12:46;;;;;;;3.00;2.70;;;;;;;16.50;100.00;155600.66;4979624;28;20837;-75
2021/06/24 00:15:22;;;;;;;2.60;2.40;;;;;;;16.52;100.00;155604.59;4979384;28;20429;-75
2021/06/24 00:17:59;;;;;;;3.50;2.93;;;;;;;16.50;100.00;155599.38;4979106;28;20460;-75
2021/06/24 00:20:34;;;;;;;4.40;3.10;;;;;;;16.46;100.00;155590.28;4978525;28;20453;-75
2021/06/24 00:23:10;;;;;;;2.93;2.70;;;;;;;16.48;100.00;155595.47;4979191;28;20917;-75
2021/06/24 00:25:46;;;;;;;3.10;2.80;;;;;;;16.44;100.00;155585.09;4979391;28;20434;-75
2021/06/24 00:28:23;;;;;;;3.37;3.07;;;;;;;16.49;100.00;155598.09;4996355;28;20445;-75
2021/06/24 00:30:59;;;;;;;5.00;2.90;;;;;;;16.48;100.00;155594.16;4979157;28;20446;-75
2021/06/24 00:33:36;;;;;;;3.83;3.50;;;;;;;16.47;100.00;155592.88;4979164;28;20469;-75
2021/06/24 00:36:12;;;;;;;4.67;4.00;;;;;;;16.50;100.00;155599.38;4978489;28;20457;-75
2021/06/24 00:38:48;;;;;;;3.63;3.33;;;;;;;16.49;100.00;155596.78;4995859;28;20441;-75
2021/06/24 00:41:24;;;;;;;4.67;4.27;;;;;;;16.51;100.00;155601.97;4980436;28;20825;-75
2021/06/24 00:44:01;;;;;;;4.33;3.93;;;;;;;16.49;100.00;155598.09;4964168;28;20445;-75
2021/06/24 00:46:36;;;;;;;5.10;4.60;;;;;;;16.50;100.00;155600.66;4964067;28;20450;-75
2021/06/24 00:49:14;;;;;;;5.50;5.03;;;;;;;16.50;100.00;155600.66;4977022;28;20410;-75
2021/06/24 00:51:50;;;;;;;6.00;5.50;;;;;;;16.49;100.00;155598.09;4963773;28;20820;-75
2021/06/24 00:54:26;;;;;;;6.90;5.50;;;;;;;16.45;100.00;155587.66;4963523;28;20480;-75
2021/06/24 00:57:03;;;;;;;7.50;6.00;;;;;;;16.47;100.00;155591.59;4977960;28;20481;-75
2021/06/24 00:59:39;;;;;;;6.47;5.87;;;;;;;16.49;100.00;155596.78;4978817;28;20516;-75
2021/06/24 01:02:15;;;;;;;9.10;6.23;;;;;;;16.49;100.00;155596.78;4963625;28;20445;-75
2021/06/24 01:04:52;;;;;;;6.40;5.80;;;;;;;16.43;100.00;155582.47;4963607;28;20450;-74
2021/06/24 01:07:28;;;;;;;8.07;6.93;;;;;;;16.47;100.00;155592.88;4978236;28;20457;-74
2021/06/24 01:10:26;;;;;;;6.30;5.70;;;;;;;16.43;100.00;155582.47;4959423;28;20837;-74
2021/06/24 01:13:03;;;;;;;6.67;6.07;;;;;;;16.44;100.00;155585.09;4971255;28;20839;-74
2021/06/24 01:15:38;;;;;;;6.37;5.73;;;;;;;16.45;100.00;155587.66;4973985;28;20439;-76
2021/06/24 01:18:14;;;;;;;6.53;5.90;;;;;;;16.41;100.00;155577.28;4969757;28;20442;-76
2021/06/24 01:20:53;;;;;;;6.27;5.77;;;;;;;16.43;100.00;155583.78;4989829;28;20493;-76
2021/06/24 01:23:30;;;;;;;7.13;6.53;;;;;;;16.42;100.00;155579.88;4958923;28;20825;-76
2021/06/24 01:26:10;;;;;;;5.73;5.23;;;;;;;16.42;100.00;155579.88;4986962;28;20485;-77
2021/06/24 01:28:46;;;;;;;6.23;5.63;;;;;;;16.45;100.00;155587.66;4978126;28;20445;-76
2021/06/24 01:31:23;;;;;;;5.70;5.20;;;;;;;16.37;100.00;155568.16;4979098;28;20808;-76
2021/06/24 01:34:01;;;;;;;7.20;6.50;;;;;;;16.40;100.00;155574.66;4963252;28;20477;-76
2021/06/24 01:36:37;;;;;;;6.47;5.87;;;;;;;16.38;100.00;155570.78;4978315;28;20919;-76
2021/06/24 01:39:14;;;;;;;6.80;6.20;;;;;;;16.36;100.00;155564.28;4995325;28;20442;-76
2021/06/24 01:41:57;;;;;;;6.40;5.80;;;;;;;16.34;100.00;155560.34;4979040;28;20992;-74
2021/06/24 01:44:35;;;;;;;5.80;5.27;;;;;;;16.33;100.00;155556.47;4963023;28;20437;-76
2021/06/24 01:47:12;;;;;;;6.00;5.40;;;;;;;16.34;100.00;155559.06;4995446;28;20441;-76
2021/06/24 01:49:48;;;;;;;7.57;6.20;;;;;;;16.40;100.00;155574.66;4994705;28;20484;-76
2021/06/24 01:52:27;;;;;;;6.10;5.50;;;;;;;16.38;100.00;155570.78;4962420;28;20454;-76
2021/06/24 01:55:04;;;;;;;6.60;6.00;;;;;;;16.40;100.00;155575.97;4959701;28;20482;-76
2021/06/24 01:57:48;;;;;;;6.60;6.03;;;;;;;16.41;100.00;155577.28;4962642;28;20477;-76
2021/06/24 02:00:43;;;;;;;6.90;6.30;;;;;;;16.41;100.00;155578.56;4959055;28;20442;-76
2021/06/24 02:03:26;;;;;;;5.97;5.37;;;;;;;16.41;100.00;155577.28;4977463;28;20449;-76
2021/06/24 02:06:03;;;;;;;5.80;5.20;;;;;;;16.38;100.00;155569.47;4962578;28;20826;-76
2021/06/24 02:08:41;;;;;;;6.03;5.43;;;;;;;16.39;100.00;155573.34;4978370;28;20456;-76
2021/06/24 02:11:17;;;;;;;5.27;4.87;;;;;;;16.37;100.00;155566.84;4976732;28;20453;-76
2021/06/24 02:13:56;;;;;;;4.47;4.07;;;;;;;16.39;100.00;155572.06;4977407;28;20568;-76
2021/06/24 02:16:32;;;;;;;5.33;4.83;;;;;;;16.39;100.00;155572.06;4962229;28;20555;-76
2021/06/24 02:19:08;;;;;;;3.83;3.43;;;;;;;16.38;100.00;155570.78;4962119;28;20456;-76
2021/06/24 02:22:13;;;;;;;4.53;4.13;;;;;;;16.37;100.00;155566.84;4967899;28;20454;-77
2021/06/24 02:25:01;;;;;;;4.27;3.87;;;;;;;16.35;100.00;155562.97;4993311;28;20744;-76
2021/06/24 02:27:54;;;;;;;3.97;3.63;;;;;;;16.36;100.00;155564.28;4978144;28;20454;-76
2021/06/24 02:30:46;;;;;;;4.43;4.03;;;;;;;16.45;100.00;155588.97;4962125;28;20442;-76
2021/06/24 02:33:23;;;;;;;5.87;5.27;;;;;;;16.44;100.00;155585.09;4977908;28;20552;-76
2021/06/24 02:36:08;;;;;;;5.60;5.10;;;;;;;16.37;100.00;155568.16;4962291;28;20454;-76
2021/06/24 02:38:47;;;;;;;5.00;4.60;;;;;;;16.26;100.00;155539.56;4971952;28;20437;-76
2021/06/24 02:41:23;;;;;;;4.90;4.50;;;;;;;16.22;100.00;155529.16;4962102;28;20911;-76
2021/06/24 02:44:00;;;;;;;4.97;4.57;;;;;;;16.24;100.00;155533.06;4962000;28;20540;-76
2021/06/24 02:46:38;;;;;;;4.80;4.30;;;;;;;16.23;100.00;155530.47;4961413;28;20801;-76
2021/06/24 02:49:13;;;;;;;4.17;3.77;;;;;;;16.22;100.00;155529.16;4958673;28;20423;-76
2021/06/24 02:52:03;;;;;;;5.10;4.60;;;;;;;16.17;100.00;155514.88;4958062;28;20879;-76
2021/06/24 02:54:39;;;;;;;6.10;4.57;;;;;;;16.14;100.00;155507.06;4946891;28;20869;-76
2021/06/24 02:57:16;;;;;;;5.27;4.60;;;;;;;16.11;100.00;155500.56;4961565;28;20979;-76
2021/06/24 03:00:12;;;;;;;4.87;4.43;;;;;;;16.09;100.00;155494.06;4957225;28;20819;-76
2021/06/24 03:02:53;;;;;;;5.83;5.33;;;;;;;16.03;100.00;155479.75;4961233;28;20446;-76
2021/06/24 03:05:29;;;;;;;6.33;5.10;;;;;;;16.04;100.00;155481.06;4956330;28;20533;-76
2021/06/24 03:08:06;;;;;;;5.50;4.90;;;;;;;16.04;100.00;155481.06;4949906;28;20454;-76
2021/06/24 03:11:01;;;;;;;5.43;4.93;;;;;;;16.03;100.00;155478.44;4958601;28;20459;-76
2021/06/24 03:13:38;;;;;;;5.10;4.60;;;;;;;15.91;100.00;155448.56;4977520;28;20465;-76
2021/06/24 03:16:13;;;;;;;5.13;4.60;;;;;;;15.90;100.00;155444.63;4976435;28;20445;-76
2021/06/24 03:18:51;;;;;;;4.83;4.37;;;;;;;15.86;100.00;155434.25;4976257;28;20437;-76
2021/06/24 03:21:28;;;;;;;4.43;4.03;;;;;;;15.84;100.00;155430.31;4958242;28;20836;-76
2021/06/24 03:24:05;;;;;;;4.87;4.37;;;;;;;15.83;100.00;155427.75;4949518;28;20519;-76
2021/06/24 03:26:42;;;;;;;4.93;4.50;;;;;;;15.82;100.00;155426.44;4976502;28;20805;-76
2021/06/24 03:29:20;;;;;;;6.53;5.00;;;;;;;15.80;100.00;155421.25;4961319;28;21141;-76
2021/06/24 03:32:00;;;;;;;5.23;4.73;;;;;;;15.82;100.00;155426.44;4961212;28;20452;-76
2021/06/24 03:34:40;;;;;;;6.10;4.40;;;;;;;15.83;100.00;155429.03;4975139;28;20473;-76
2021/06/24 03:37:16;;;;;;;5.27;4.50;;;;;;;15.87;100.00;155438.13;4977649;28;20481;-76
2021/06/24 03:39:58;;;;;;;7.13;4.67;;;;;;;15.88;100.00;155439.44;4961122;28;20867;-76
2021/06/24 03:42:34;;;;;;;4.87;4.47;;;;;;;15.90;100.00;155444.63;4975521;28;20544;-76
2021/06/24 03:45:12;;;;;;;5.60;5.10;;;;;;;15.89;100.00;155443.31;4960791;28;20445;-76
2021/06/24 03:47:47;;;;;;;5.23;4.73;;;;;;;15.91;100.00;155447.25;4958218;28;20446;-76
2021/06/24 03:50:25;;;;;;;6.30;5.20;;;;;;;15.93;100.00;155452.44;4972199;28;20525;-76
2021/06/24 03:53:00;;;;;;;5.73;4.60;;;;;;;15.94;100.00;155455.06;4958273;28;20457;-76
2021/06/24 03:55:37;;;;;;;5.80;5.20;;;;;;;15.94;100.00;155455.06;4960969;28;20452;-76
2021/06/24 03:58:22;;;;;;;5.90;5.20;;;;;;;15.99;100.00;155468.06;4957205;28;20482;-76
2021/06/24 04:00:58;;;;;;;8.20;5.67;;;;;;;16.00;100.00;155470.63;4957331;28;20468;-76
2021/06/24 04:03:37;;;;;;;6.33;5.43;;;;;;;16.03;100.00;155478.44;4957281;28;20461;-76
2021/06/24 04:06:17;;;;;;;7.00;5.63;;;;;;;16.05;100.00;155484.94;4948294;28;20459;-76
2021/06/24 04:08:52;;;;;;;7.47;6.40;;;;;;;16.10;100.00;155496.63;4953436;29;20443;-76
2021/06/24 04:11:36;;;;;;;6.40;5.80;;;;;;;16.16;100.00;155513.53;4946340;28;20458;-76
2021/06/24 04:14:21;;;;;;;6.20;5.60;;;;;;;16.43;100.00;155583.78;4941734;28;20450;-76
2021/06/24 04:17:11;;;;;;;6.30;5.67;;;;;;;16.44;100.00;155586.38;4963480;28;20455;-76
2021/06/24 04:19:47;;;;;;;7.57;6.90;;;;;;;16.40;100.00;155574.66;4958772;28;20438;-76
2021/06/24 04:22:24;;;;;;;5.37;4.87;;;;;;;16.38;100.00;155570.78;4941991;28;20460;-76
2021/06/24 04:25:25;;;;;;;7.27;5.93;;;;;;;16.36;100.00;155564.28;4971527;28;20786;-76
2021/06/24 04:28:04;;;;;;;5.67;5.17;;;;;;;16.39;100.00;155572.06;4986467;28;20438;-76
2021/06/24 04:30:41;;;;;;;6.20;5.70;;;;;;;16.37;100.00;155566.84;4955265;28;20473;-76
2021/06/24 04:33:17;;;;;;;6.93;5.57;;;;;;;16.40;100.00;155574.66;4952965;28;20482;-76
2021/06/24 04:36:22;;;;;;;5.93;5.20;;;;;;;16.40;100.00;155574.66;4975486;28;20450;-76
2021/06/24 04:39:05;;;;;;;5.27;4.87;;;;;;;16.41;100.00;155577.28;4975536;28;20948;-76
2021/06/24 04:41:42;;;;;;;6.40;5.80;;;;;;;16.44;100.00;155586.38;4960968;28;20450;-76
2021/06/24 04:44:21;;;;;;;5.90;5.40;;;;;;;16.47;100.00;155592.88;4971147;28;20763;-76
2021/06/24 04:46:58;;;;;;;6.33;5.73;;;;;;;16.60;100.00;155626.72;4960617;28;20483;-76
2021/06/24 04:49:35;;;;;;;6.57;6.07;;;;;;;16.71;100.00;155655.34;4960460;28;20462;-76
2021/06/24 04:52:22;;;;;;;6.40;5.90;;;;;;;16.86;100.00;155694.41;4956234;28;20460;-77
2021/06/24 04:55:17;;;;;;;6.17;5.67;;;;;;;16.97;100.00;155721.75;4967233;28;20514;-76
2021/06/24 04:57:53;;;;;;;6.60;5.90;;;;;;;17.05;100.00;155743.81;4974770;28;20473;-76
2021/06/24 05:00:41;;;;;;;6.03;5.53;;;;;;;17.14;100.00;155764.66;4972782;28;20514;-76
2021/06/24 05:03:35;;;;;;;4.60;4.20;;;;;;;17.25;100.00;155794.59;4976428;28;20447;-76
2021/06/24 05:06:14;;;;;;;7.73;4.87;;;;;;;17.33;100.00;155814.13;4967892;28;20541;-76
2021/06/24 05:08:50;;;;;;;4.80;4.40;;;;;;;17.48;100.00;155853.16;4976671;28;20518;-77
2021/06/24 05:11:27;;;;;;;6.50;4.47;;;;;;;18.16;100.00;156030.25;4955873;28;21098;-77
2021/06/24 05:14:03;;;;;;;5.30;4.70;;;;;;;19.20;100.00;156297.38;4975153;28;20466;-77
2021/06/24 05:16:38;;;;;;;5.20;4.37;;;;;;;20.10;100.00;156529.47;4974223;28;20458;-77
2021/06/24 05:19:14;;;;;;;4.43;3.60;;;;;;;20.76;94.10;156701.72;4986602;28;20437;-77
2021/06/24 05:21:49;;;;;;;5.43;3.30;;;;;;;21.16;90.57;156804.84;4984020;28;20450;-75
2021/06/24 05:24:25;;;;;;;3.60;3.17;;;;;;;21.55;89.71;156906.66;4971198;28;20442;-76
2021/06/24 05:27:02;;;;;;;3.77;3.30;;;;;;;21.79;82.39;156969.31;4973345;28;20466;-75
2021/06/24 05:29:38;;;;;;;6.10;3.30;;;;;;;21.99;84.23;157020.31;4968314;28;20446;-76
2021/06/24 05:32:14;;;;;;;3.40;3.10;;;;;;;21.85;81.66;156983.69;4956993;28;20458;-76
2021/06/24 05:34:49;;;;;;;2.80;2.60;;;;;;;21.83;82.03;156979.78;4960351;28;20474;-75
2021/06/24 05:37:25;;;;;;;3.47;3.17;;;;;;;22.12;81.76;157052.94;4961495;28;20463;-76
2021/06/24 05:40:01;;;;;;;3.03;2.73;;;;;;;22.27;80.77;157093.44;4957507;28;21277;-76
2021/06/24 05:42:38;;;;;;;3.20;2.90;;;;;;;22.41;77.91;157128.69;4965681;28;20450;-76
2021/06/24 05:45:14;;;;;;;3.00;2.80;;;;;;;21.70;83.35;156945.84;4968783;28;20454;-76
2021/06/24 05:47:50;;;;;;;3.93;3.53;;;;;;;21.60;81.93;156919.75;4960861;28;20455;-76
2021/06/24 05:50:26;;;;;;;3.90;3.60;;;;;;;21.28;86.75;156836.19;4953760;28;20444;-75
2021/06/24 05:53:02;;;;;;;4.63;4.20;;;;;;;21.35;85.30;156854.44;4962264;28;20470;-75
2021/06/24 05:55:50;;;;;;;4.23;3.90;;;;;;;22.08;80.29;157042.53;4965109;28;20557;-75
2021/06/24 05:58:29;;;;;;;5.53;4.03;;;;;;;22.33;79.21;157109.13;4960830;28;20534;-76
2021/06/24 06:01:04;;;;;;;5.17;4.13;;;;;;;21.95;78.38;157008.56;4970423;28;20469;-76
2021/06/24 06:03:40;;;;;;;4.40;4.00;;;;;;;22.49;80.20;157149.59;4973923;28;20473;-76
2021/06/24 06:06:15;;;;;;;4.90;4.17;;;;;;;22.41;78.19;157128.69;4962528;28;20458;-76
2021/06/24 06:08:51;;;;;;;4.43;4.03;;;;;;;22.44;80.60;157136.53;4971831;28;20423;-76
2021/06/24 06:11:26;;;;;;;4.37;3.97;;;;;;;21.90;79.61;156995.47;4988006;28;20466;-76
2021/06/24 06:14:04;;;;;;;4.53;4.13;;;;;;;21.39;85.14;156864.91;4974654;28;20441;-76
2021/06/24 06:16:39;;;;;;;4.00;3.70;;;;;;;20.96;84.21;156752.63;4991890;28;20714;-77
2021/06/24 06:19:15;;;;;;;4.20;3.90;;;;;;;20.41;85.37;156611.69;4988962;28;20446;-76
2021/06/24 06:21:50;;;;;;;4.60;4.20;;;;;;;20.40;89.10;156607.78;4971847;28;20461;-76
2021/06/24 06:24:26;;;;;;;7.53;6.83;;;;;;;20.92;88.24;156742.16;4992600;28;20657;-76
2021/06/24 06:27:01;;;;;;;4.73;4.30;;;;;;;22.01;82.82;157025.53;4975230;28;20924;-76
2021/06/24 06:29:38;;;;;;;4.97;4.47;;;;;;;22.43;80.16;157135.22;4975324;28;20840;-76
2021/06/24 06:32:14;;;;;;;4.70;4.30;;;;;;;22.25;82.34;157088.22;4975661;28;20540;-76
2021/06/24 06:34:50;;;;;;;4.50;4.20;;;;;;;21.41;87.45;156870.13;4975033;28;20476;-76
2021/06/24 06:37:25;;;;;;;5.00;4.50;;;;;;;21.06;89.64;156780.06;4993856;28;20449;-75
2021/06/24 06:40:01;;;;;;;5.20;4.80;;;;;;;20.95;88.32;156750.00;4994230;28;20441;-75
2021/06/24 06:42:36;;;;;;;4.60;4.20;;;;;;;21.37;84.06;156858.34;4960607;28;20449;-75
2021/06/24 06:45:17;;;;;;;4.57;4.17;;;;;;;21.51;84.74;156896.22;4975778;28;20485;-75
2021/06/24 06:47:54;;;;;;;6.17;4.70;;;;;;;22.34;80.73;157110.44;4962793;28;20556;-75
2021/06/24 06:50:31;;;;;;;4.93;4.53;;;;;;;22.20;78.06;157075.16;4992102;28;20430;-76
2021/06/24 06:53:07;;;;;;;4.90;4.50;;;;;;;21.34;79.56;156850.56;4993294;28;20445;-75
2021/06/24 06:55:42;;;;;;;5.30;4.80;;;;;;;21.84;79.10;156981.09;4975041;28;20474;-75
2021/06/24 06:58:19;;;;;;;5.63;5.13;;;;;;;21.58;80.14;156914.47;4992431;28;20512;-75
2021/06/24 07:00:56;;;;;;;8.20;5.33;;;;;;;21.97;82.13;157013.78;4993421;28;20442;-75
2021/06/24 07:03:31;;;;;;;4.97;4.57;;;;;;;22.88;76.54;157250.22;4976087;28;20445;-75
2021/06/24 07:06:07;;;;;;;6.00;5.50;;;;;;;22.58;80.48;157173.13;4989854;28;20477;-75
2021/06/24 07:08:43;;;;;;;5.50;4.90;;;;;;;21.90;81.15;156996.78;4975712;28;20843;-74
2021/06/24 07:11:19;;;;;;;5.70;5.20;;;;;;;21.37;81.41;156859.66;4978428;28;20449;-75
2021/06/24 07:13:54;;;;;;;5.00;4.50;;;;;;;21.09;83.75;156786.59;4965660;28;20453;-75
2021/06/24 07:16:31;;;;;;;5.30;4.80;;;;;;;20.95;83.82;156750.00;4975028;28;20449;-75
2021/06/24 07:19:07;;;;;;;5.47;5.03;;;;;;;20.96;86.85;156753.94;4993870;28;20540;-75
2021/06/24 07:21:43;;;;;;;5.47;5.03;;;;;;;21.54;83.77;156904.06;5005425;28;20952;-75
2021/06/24 07:24:20;;;;;;;4.80;4.40;;;;;;;21.61;82.40;156922.31;4974034;28;20807;-75
2021/06/24 07:26:55;;;;;;;5.23;4.83;;;;;;;21.30;84.18;156841.41;4976241;28;20461;-75
2021/06/24 07:29:31;;;;;;;5.40;4.90;;;;;;;21.18;83.11;156810.09;4975973;28;20441;-74
2021/06/24 07:32:08;;;;;;;5.67;5.27;;;;;;;20.66;84.17;156675.63;4961127;28;20536;-75
2021/06/24 07:34:44;;;;;;;6.47;5.87;;;;;;;19.89;87.58;156476.03;4976209;28;20472;-75
2021/06/24 07:37:20;;;;;;;5.60;5.20;;;;;;;19.74;87.38;156436.91;4970846;28;20449;-75
2021/06/24 07:39:55;;;;;;;6.80;6.20;;;;;;;19.68;90.14;156422.56;4973140;28;20449;-74
2021/06/24 07:42:31;;;;;;;5.67;5.17;;;;;;;19.80;90.79;156452.59;4966913;28;20457;-75
2021/06/24 07:45:07;;;;;;;6.30;5.70;;;;;;;20.30;88.59;156581.72;4969081;28;20434;-75
2021/06/24 07:47:44;;;;;;;5.70;5.10;;;;;;;20.29;86.45;156580.41;4960938;28;20476;-74
2021/06/24 07:50:20;;;;;;;8.10;5.43;;;;;;;20.67;84.96;156678.25;4993091;28;20434;-75
2021/06/24 07:52:56;;;;;;;8.03;4.83;;;;;;;20.84;85.34;156721.28;4972895;28;20465;-75
2021/06/24 07:55:34;;;;;;;5.37;4.87;;;;;;;21.23;84.89;156823.16;4990727;28;20469;-75
2021/06/24 07:58:10;;;;;;;5.83;5.33;;;;;;;21.71;80.36;156947.16;4991445;28;20461;-75
2021/06/24 08:00:46;;;;;;;6.13;5.50;;;;;;;21.78;78.13;156966.75;4975358;28;20445;-74
2021/06/24 08:03:23;;;;;;;5.30;4.90;;;;;;;22.56;74.48;157167.88;4975535;28;20453;-74
2021/06/24 08:05:59;;;;;;;5.90;5.13;;;;;;;22.96;73.67;157271.13;4992206;28;20442;-75
2021/06/24 08:08:34;;;;;;;5.40;4.90;;;;;;;23.81;70.18;157490.75;4977162;28;20441;-75
2021/06/24 08:11:10;;;;;;;5.57;5.13;;;;;;;23.48;69.99;157405.81;4996539;28;20441;-74
2021/06/24 08:13:45;;;;;;;5.10;4.70;;;;;;;24.02;69.15;157545.69;4972882;28;20866;-74
2021/06/24 08:16:21;;;;;;;5.03;4.53;;;;;;;24.84;67.13;157758.97;4987951;28;20967;-75
2021/06/24 08:18:58;;;;;;;5.60;3.87;;;;;;;24.81;65.44;157751.13;4963593;28;20468;-75
2021/06/24 08:21:33;;;;;;;4.30;4.00;;;;;;;24.21;62.64;157596.75;4993221;28;20446;-75
2021/06/24 08:24:09;;;;;;;4.47;4.17;;;;;;;24.24;64.88;157603.28;4978070;28;20936;-75
2021/06/24 08:26:44;;;;;;;4.60;3.77;;;;;;;24.07;68.22;157560.06;4996356;28;20813;-75
2021/06/24 08:29:20;;;;;;;5.83;3.53;;;;;;;24.41;66.14;157647.72;4995744;28;20449;-75
2021/06/24 08:31:57;;;;;;;4.93;4.40;;;;;;;23.81;67.00;157492.06;4979199;28;20461;-75
2021/06/24 08:34:34;;;;;;;6.40;4.10;;;;;;;23.96;68.88;157531.28;4979024;28;20448;-75
2021/06/24 08:37:10;;;;;;;5.10;4.60;;;;;;;23.91;67.86;157516.91;4964312;28;20457;-75
2021/06/24 08:39:47;;;;;;;4.70;4.27;;;;;;;23.50;70.24;157411.03;4978363;28;20473;-75
2021/06/24 08:42:23;;;;;;;4.90;4.50;;;;;;;22.74;71.37;157214.94;4993706;28;20464;-75
2021/06/24 08:45:01;;;;;;;6.50;5.87;;;;;;;22.08;73.09;157043.78;4978572;28;20453;-75
2021/06/24 08:47:37;;;;;;;5.33;4.93;;;;;;;22.27;73.57;157093.44;4978520;28;20457;-75
2021/06/24 08:50:14;;;;;;;4.90;4.50;;;;;;;22.57;69.90;157170.50;4977967;28;20956;-75
2021/06/24 08:52:50;;;;;;;4.87;4.53;;;;;;;22.85;70.68;157242.38;4978891;28;20845;-74
2021/06/24 08:55:36;;;;;;;4.97;4.57;;;;;;;22.77;71.76;157221.53;4970867;28;20472;-74
2021/06/24 08:58:12;;;;;;;4.60;4.20;;;;;;;22.47;71.15;157144.38;4978240;28;20873;-74
2021/06/24 09:00:48;;;;;;;5.03;4.63;;;;;;;22.36;71.37;157116.97;4977663;28;20453;-74
2021/06/24 09:03:27;;;;;;;4.40;4.10;;;;;;;22.19;74.21;157072.53;4961848;28;20465;-75
2021/06/24 09:06:09;;;;;;;5.63;4.27;;;;;;;22.21;74.77;157077.75;4969244;28;20529;-75
2021/06/24 09:08:46;;;;;;;4.60;4.20;;;;;;;22.23;73.23;157081.69;4978228;28;20544;-74
2021/06/24 09:11:24;;;;;;;5.20;4.80;;;;;;;22.13;73.68;157056.88;4995440;28;20450;-74
2021/06/24 09:14:05;;;;;;;5.07;4.77;;;;;;;21.92;73.32;157000.72;4995560;28;20433;-75
2021/06/24 09:16:41;;;;;;;5.40;5.00;;;;;;;21.93;72.91;157003.31;4978013;28;21084;-74
2021/06/24 09:19:19;;;;;;;5.60;5.10;;;;;;;21.68;74.39;156940.59;4977719;28;20949;-75
2021/06/24 09:21:58;;;;;;;5.50;5.10;;;;;;;21.61;75.78;156921.00;4977488;28;20458;-75
2021/06/24 09:24:35;;;;;;;5.00;4.60;;;;;;;21.59;75.56;156915.81;4963576;28;20454;-74
2021/06/24 09:27:26;;;;;;;6.00;5.50;;;;;;;21.40;78.02;156866.19;4959445;28;20454;-74
2021/06/24 09:30:07;;;;;;;6.23;5.63;;;;;;;21.25;78.63;156828.34;4986526;28;20445;-74
2021/06/24 09:32:45;;;;;;;6.50;5.90;;;;;;;21.22;79.60;156820.53;4991604;28;20455;-74
2021/06/24 09:35:22;;;;;;;6.77;6.17;;;;;;;21.32;79.93;156846.63;4985712;28;20462;-74
2021/06/24 09:38:06;;;;;;;7.00;5.87;;;;;;;21.58;79.96;156914.47;4994356;28;20481;-74
2021/06/24 09:40:44;;;;;;;6.67;6.07;;;;;;;21.95;77.66;157008.56;4994737;28;20465;-74
2021/06/24 09:43:35;;;;;;;7.53;5.30;;;;;;;22.26;74.32;157089.53;4962166;28;20485;-74
2021/06/24 09:46:14;;;;;;;4.83;4.43;;;;;;;22.28;74.79;157094.75;4994186;28;20430;-75
2021/06/24 09:48:52;;;;;;;4.73;4.33;;;;;;;22.43;73.52;157133.91;4977951;28;20446;-74
2021/06/24 09:51:30;;;;;;;5.90;4.80;;;;;;;22.52;70.75;157156.13;4962701;28;20801;-74
2021/06/24 09:54:10;;;;;;;4.80;4.40;;;;;;;22.93;73.05;157263.28;4977149;28;20441;-75
2021/06/24 09:56:47;;;;;;;4.97;4.13;;;;;;;23.38;69.13;157380.97;4987539;28;20509;-74
2021/06/24 09:59:32;;;;;;;4.87;4.47;;;;;;;23.50;68.06;157412.34;4969231;28;20966;-75
2021/06/24 10:02:09;;;;;;;4.50;4.03;;;;;;;23.76;67.71;157479.00;4958186;28;20840;-75
2021/06/24 10:04:46;;;;;;;4.80;4.40;;;;;;;23.72;64.44;157468.56;4987925;28;20536;-75
2021/06/24 10:07:21;;;;;;;5.20;4.70;;;;;;;23.85;64.91;157501.25;4993883;28;20449;-74
2021/06/24 10:09:58;;;;;;;5.93;5.53;;;;;;;23.95;64.93;157528.69;4962526;28;20441;-75
2021/06/24 10:12:34;;;;;;;5.33;4.83;;;;;;;23.98;65.35;157535.25;4989750;28;20472;-75
2021/06/24 10:15:11;;;;;;;5.27;4.80;;;;;;;23.95;64.29;157527.38;4976982;28;20794;-74
2021/06/24 10:17:47;;;;;;;4.70;4.30;;;;;;;23.78;65.04;157484.22;4976093;28;20545;-75
2021/06/24 10:20:23;;;;;;;5.77;4.63;;;;;;;23.46;64.21;157400.56;4976762;28;20453;-74
2021/06/24 10:23:00;;;;;;;4.53;4.17;;;;;;;23.01;69.19;157285.50;4990552;28;20449;-75
2021/06/24 10:25:39;;;;;;;4.70;4.30;;;;;;;23.18;67.20;157327.34;4977143;28;20445;-75
2021/06/24 10:28:17;;;;;;;5.83;4.63;;;;;;;22.97;70.41;157275.09;4977025;28;20465;-75
2021/06/24 10:30:53;;;;;;;3.93;3.63;;;;;;;22.64;69.10;157188.81;4976225;28;20589;-75
2021/06/24 10:33:28;;;;;;;5.93;3.90;;;;;;;22.80;69.89;157230.63;4976432;28;20457;-74
2021/06/24 10:36:14;;;;;;;3.80;3.50;;;;;;;22.97;65.11;157275.09;4981716;28;20822;-74
2021/06/24 10:38:53;;;;;;;3.13;2.67;;;;;;;23.28;65.86;157353.47;4976875;28;20540;-74
2021/06/24 10:42:02;;;;;;;3.63;3.33;;;;;;;23.14;63.79;157316.91;4976585;28;20457;-74
2021/06/24 10:44:45;;;;;;;4.23;3.80;;;;;;;22.82;65.28;157235.84;4964574;28;20884;-74
2021/06/24 10:47:43;;;;;;;4.83;4.40;;;;;;;22.96;66.80;157271.13;4976231;28;20549;-74
2021/06/24 10:50:45;;;;;;;2.90;2.70;;;;;;;23.21;63.51;157336.50;4993757;28;20442;-74
2021/06/24 10:53:54;;;;;;;2.90;2.70;;;;;;;23.45;64.14;157397.97;4993546;28;20445;-75
2021/06/24 10:56:32;;;;;;;3.30;3.00;;;;;;;23.49;62.29;157408.41;4990628;28;20496;-74
2021/06/24 10:59:31;;;;;;;3.07;2.77;;;;;;;23.30;63.24;157358.72;4976470;28;20442;-74
2021/06/24 11:02:15;;;;;;;2.90;2.70;;;;;;;23.15;62.80;157319.47;4975570;28;20453;-74
2021/06/24 11:04:51;;;;;;;3.63;3.33;;;;;;;23.41;64.74;157387.50;4974063;28;20453;-74
2021/06/24 11:07:36;;;;;;;4.20;3.57;;;;;;;23.40;65.80;157386.22;4992913;28;20445;-74
2021/06/24 11:10:25;;;;;;;4.00;3.60;;;;;;;23.47;65.30;157403.19;4975900;28;20446;-74
2021/06/24 11:13:08;;;;;;;3.90;3.60;;;;;;;23.14;64.99;157316.91;4992127;28;20444;-74
2021/06/24 11:15:55;;;;;;;3.90;3.60;;;;;;;23.32;66.18;157365.25;4964175;28;20473;-74
2021/06/24 11:18:49;;;;;;;3.63;3.27;;;;;;;23.32;66.66;157365.25;4992464;28;20453;-75
2021/06/24 11:21:58;;;;;;;3.80;3.50;;;;;;;23.10;66.98;157306.41;4975422;28;20481;-74
2021/06/24 11:24:33;;;;;;;2.93;2.73;;;;;;;22.87;65.90;157248.97;4975346;28;20462;-74
2021/06/24 11:27:21;;;;;;;3.07;2.87;;;;;;;23.16;65.94;157322.13;4975872;28;20465;-74
2021/06/24 11:29:58;;;;;;;3.30;3.10;;;;;;;23.55;66.69;157424.09;4975259;28;20460;-74
2021/06/24 11:32:38;;;;;;;3.70;3.40;;;;;;;23.69;65.65;157459.41;4993503;28;20532;-74
2021/06/24 11:35:29;;;;;;;2.90;2.70;;;;;;;23.95;65.42;157527.38;4975783;28;20433;-75
2021/06/24 11:38:05;;;;;;;3.50;3.20;;;;;;;24.35;62.88;157630.75;4975790;28;20948;-75
2021/06/24 11:40:41;;;;;;;4.90;3.03;;;;;;;24.14;62.29;157578.47;4975215;28;20453;-74
2021/06/24 11:43:16;;;;;;;2.70;2.50;;;;;;;23.90;60.39;157515.63;4978281;28;20481;-75
2021/06/24 11:45:53;;;;;;;3.07;2.77;;;;;;;24.07;59.40;157560.06;4979659;28;20833;-75
2021/06/24 11:48:29;;;;;;;2.93;2.73;;;;;;;24.20;60.21;157594.09;4978511;28;20453;-75
2021/06/24 12:03:07;;;;;;;3.20;2.90;;;;;;;24.21;64.63;157596.75;4976169;28;20513;-75
2021/06/24 12:05:50;;;;;;;3.10;2.90;;;;;;;24.05;60.57;157554.84;4974573;28;20434;-75
2021/06/24 12:08:28;;;;;;;3.53;3.00;;;;;;;24.02;63.01;157547.00;4990152;28;20457;-75
2021/06/24 12:11:05;;;;;;;3.40;3.10;;;;;;;24.21;63.03;157596.75;4977231;28;20449;-75
2021/06/24 12:13:43;;;;;;;3.33;3.13;;;;;;;24.35;63.13;157632.06;4967673;28;20446;-75
2021/06/24 12:16:18;;;;;;;2.60;2.40;;;;;;;24.47;62.49;157663.44;4990026;28;20470;-75
2021/06/24 12:18:55;;;;;;;2.90;2.60;;;;;;;24.52;61.08;157675.19;4988953;28;20457;-74
2021/06/24 12:21:32;;;;;;;6.67;2.80;;;;;;;24.62;60.46;157701.38;4959114;28;20500;-75
2021/06/24 12:24:07;;;;;;;3.13;2.50;;;;;;;24.64;58.20;157706.63;4996809;28;20430;-75
2021/06/24 12:26:43;;;;;;;2.43;2.23;;;;;;;24.60;58.61;157696.13;4950571;28;20442;-75
2021/06/24 12:29:19;;;;;;;2.50;2.30;;;;;;;24.63;59.37;157705.28;4971841;28;20457;-75